createdAt,value
2023-02-06T00:00:39.066Z,103322.59
2023-02-06T00:03:06.119Z,103329.81
2023-02-06T00:05:33.664Z,103318.75
2023-02-06T00:08:00.463Z,103316.00
2023-02-06T00:10:26.908Z,103309.66
2023-02-06T00:12:53.315Z,103318.88
2023-02-06T00:15:19.915Z,103313.28
2023-02-06T00:17:46.394Z,103314.25
2023-02-06T00:20:13.950Z,103321.47
2023-02-06T00:22:41.344Z,103327.19
2023-02-06T00:25:08.186Z,103326.47
2023-02-06T00:27:34.691Z,103324.59
2023-02-06T00:30:01.146Z,103324.72
2023-02-06T00:32:27.625Z,103326.72
2023-02-06T00:34:54.097Z,103330.44
2023-02-06T00:37:21.657Z,103327.72
2023-02-06T00:39:48.056Z,103325.13
2023-02-06T00:42:14.982Z,103328.69
2023-02-06T00:44:41.392Z,103319.66
2023-02-06T00:47:07.874Z,103321.38
2023-02-06T00:49:34.340Z,103312.28
2023-02-06T00:52:00.808Z,103320.50
2023-02-06T00:54:27.250Z,103325.97
2023-02-06T00:56:53.642Z,103330.22
2023-02-06T00:59:20.001Z,103330.22
2023-02-06T01:01:46.487Z,103330.22
2023-02-06T01:04:12.954Z,103339.44
2023-02-06T01:06:39.376Z,103336.72
2023-02-06T01:09:05.798Z,103331.34
2023-02-06T01:11:32.348Z,103336.94
2023-02-06T01:14:00.820Z,103334.19
2023-02-06T01:16:27.890Z,103333.38
2023-02-06T01:18:54.829Z,103341.44
2023-02-06T01:21:24.548Z,103342.31
2023-02-06T01:23:52.817Z,103341.44
2023-02-06T01:26:22.766Z,103341.69
2023-02-06T01:28:49.501Z,103338.19
2023-02-06T01:31:22.048Z,103340.19
2023-02-06T01:33:49.633Z,103340.47
2023-02-06T01:36:17.957Z,103335.50
2023-02-06T01:38:44.565Z,103334.00
2023-02-06T01:41:13.109Z,103333.25
2023-02-06T01:43:44.029Z,103332.78
2023-02-06T01:46:10.973Z,103327.69
2023-02-06T01:48:49.615Z,103325.81
2023-02-06T01:51:23.448Z,103323.31
2023-02-06T01:53:52.992Z,103327.78
2023-02-06T01:56:21.286Z,103325.06
2023-02-06T01:58:52.611Z,103325.06
2023-02-06T02:01:20.075Z,103318.84
2023-02-06T02:03:49.878Z,103339.72
2023-02-06T02:06:19.389Z,103342.44
2023-02-06T02:08:48.644Z,103342.72
2023-02-06T02:11:20.157Z,103341.00
2023-02-06T02:13:47.957Z,103346.69
2023-02-06T02:16:37.122Z,103342.34
2023-02-06T02:19:43.234Z,103353.91
2023-02-06T02:22:45.882Z,103333.78
2023-02-06T02:25:33.890Z,103334.50
2023-02-06T02:28:21.956Z,103328.88
2023-02-06T02:31:15.076Z,103331.34
2023-02-06T02:34:11.247Z,103333.44
2023-02-06T02:36:50.088Z,103324.00
2023-02-06T02:39:28.706Z,103319.84
2023-02-06T02:42:21.756Z,103331.28
2023-02-06T02:45:09.598Z,103325.28
2023-02-06T02:47:45.853Z,103313.00
2023-02-06T02:50:13.165Z,103321.69
2023-02-06T02:52:39.561Z,103327.25
2023-02-06T02:55:23.290Z,103326.00
2023-02-06T02:57:54.699Z,103324.38
2023-02-06T03:00:22.934Z,103331.81
2023-02-06T03:02:52.441Z,103334.53
2023-02-06T03:05:24.401Z,103332.78
2023-02-06T03:08:15.711Z,103330.31
2023-02-06T03:10:50.888Z,103333.03
2023-02-06T03:13:34.456Z,103337.84
2023-02-06T03:16:21.032Z,103346.41
2023-02-06T03:18:56.298Z,103345.75
2023-02-06T03:21:24.570Z,103345.38
2023-02-06T03:23:54.974Z,103346.06
2023-02-06T03:26:25.980Z,103346.75
2023-02-06T03:28:57.246Z,103343.97
2023-02-06T03:31:30.658Z,103348.38
2023-02-06T03:34:08.582Z,103354.50
2023-02-06T03:36:35.740Z,103345.16
2023-02-06T03:39:02.443Z,103348.44
2023-02-06T03:41:33.660Z,103356.31
2023-02-06T03:44:01.924Z,103361.44
2023-02-06T03:46:31.640Z,103368.22
2023-02-06T03:49:01.355Z,103379.44
2023-02-06T03:51:35.443Z,103373.56
2023-02-06T03:54:04.955Z,103378.56
2023-02-06T03:56:37.894Z,103379.75
2023-02-06T03:59:04.332Z,103389.25
2023-02-06T04:01:31.050Z,103387.72
2023-02-06T04:03:57.861Z,103398.84
2023-02-06T04:06:24.564Z,103403.63
2023-02-06T04:08:51.037Z,103394.50
2023-02-06T04:11:17.517Z,103399.81
2023-02-06T04:13:43.877Z,103399.81
2023-02-06T04:16:10.311Z,103396.22
2023-02-06T04:18:36.732Z,103397.22
2023-02-06T04:21:05.496Z,103403.63
2023-02-06T04:23:32.170Z,103410.06
2023-02-06T04:25:58.578Z,103414.84
2023-02-06T04:28:25.127Z,103418.00
2023-02-06T04:30:51.652Z,103414.72
2023-02-06T04:33:18.275Z,103408.81
2023-02-06T04:35:44.678Z,103415.66
2023-02-06T04:38:11.097Z,103424.06
2023-02-06T04:40:37.512Z,103418.78
2023-02-06T04:43:03.929Z,103419.66
2023-02-06T04:45:30.365Z,103418.69
2023-02-06T04:47:59.173Z,103425.09
2023-02-06T04:50:28.228Z,103415.09
2023-02-06T04:52:54.680Z,103418.78
2023-02-06T04:55:22.471Z,103429.00
2023-02-06T04:57:48.938Z,103418.47
2023-02-06T05:00:16.027Z,103426.72
2023-02-06T05:02:42.530Z,103426.81
2023-02-06T05:05:09.943Z,103427.91
2023-02-06T05:07:36.464Z,103429.09
2023-02-06T05:10:03.224Z,103431.81
2023-02-06T05:12:29.727Z,103428.31
2023-02-06T05:14:56.290Z,103420.16
2023-02-06T05:17:22.822Z,103417.53
2023-02-06T05:19:49.297Z,103417.53
2023-02-06T05:22:15.753Z,103425.47
2023-02-06T05:24:42.206Z,103422.47
2023-02-06T05:27:08.678Z,103424.97
2023-02-06T05:29:35.155Z,103432.75
2023-02-06T05:32:01.634Z,103420.75
2023-02-06T05:34:28.060Z,103429.50
2023-02-06T05:36:54.444Z,103426.44
2023-02-06T05:39:21.063Z,103421.66
2023-02-06T05:41:47.473Z,103415.03
2023-02-06T05:44:13.951Z,103410.13
2023-02-06T05:46:40.418Z,103398.16
2023-02-06T05:49:07.012Z,103396.97
2023-02-06T05:51:33.527Z,103398.59
2023-02-06T05:53:59.935Z,103392.94
2023-02-06T05:56:26.382Z,103399.94
2023-02-06T05:58:53.113Z,103399.72
2023-02-06T06:01:19.645Z,103397.88
2023-02-06T06:03:46.107Z,103397.75
2023-02-06T06:06:12.525Z,103399.72
2023-02-06T06:08:38.970Z,103396.22
2023-02-06T06:11:05.500Z,103393.38
2023-02-06T06:13:31.959Z,103397.00
2023-02-06T06:15:58.407Z,103389.03
2023-02-06T06:18:24.816Z,103401.13
2023-02-06T06:20:51.196Z,103395.78
2023-02-06T06:23:17.775Z,103401.22
2023-02-06T06:25:46.572Z,103404.16
2023-02-06T06:28:13.090Z,103419.53
2023-02-06T06:30:39.668Z,103415.94
2023-02-06T06:33:06.077Z,103411.38
2023-02-06T06:35:34.120Z,103411.25
2023-02-06T06:38:00.666Z,103418.44
2023-02-06T06:40:27.108Z,103413.00
2023-02-06T06:42:53.493Z,103413.97
2023-02-06T06:45:19.953Z,103410.34
2023-02-06T06:47:46.409Z,103406.88
2023-02-06T06:50:12.848Z,103402.53
2023-02-06T06:52:39.203Z,103393.56
2023-02-06T06:55:05.980Z,103387.25
2023-02-06T06:57:32.555Z,103399.91
2023-02-06T06:59:59.180Z,103400.56
2023-02-06T07:02:25.829Z,103395.88
2023-02-06T07:04:52.202Z,103391.41
2023-02-06T07:07:18.709Z,103395.88
2023-02-06T07:09:45.119Z,103399.47
2023-02-06T07:12:11.489Z,103395.78
2023-02-06T07:14:39.961Z,103391.19
2023-02-06T07:17:06.427Z,103398.41
2023-02-06T07:19:32.840Z,103397.41
2023-02-06T07:21:59.258Z,103400.91
2023-02-06T07:24:25.712Z,103403.63
2023-02-06T07:26:52.107Z,103398.41
2023-02-06T07:29:18.604Z,103410.94
2023-02-06T07:31:45.227Z,103414.53
2023-02-06T07:34:12.562Z,103423.88
2023-02-06T07:36:38.995Z,103420.19
2023-02-06T07:39:05.428Z,103409.31
2023-02-06T07:41:31.817Z,103421.81
2023-02-06T07:43:58.225Z,103422.69
2023-02-06T07:46:24.701Z,103417.13
2023-02-06T07:48:51.231Z,103428.91
2023-02-06T07:51:17.602Z,103426.97
2023-02-06T07:53:44.046Z,103435.00
2023-02-06T07:56:16.105Z,103429.34
2023-02-06T07:58:42.950Z,103421.06
2023-02-06T08:01:10.005Z,103431.75
2023-02-06T08:03:36.663Z,103430.69
2023-02-06T08:06:09.228Z,103420.31
2023-02-06T08:08:35.641Z,103414.53
2023-02-06T08:11:06.149Z,103408.88
2023-02-06T08:13:32.717Z,103416.50
2023-02-06T08:15:59.187Z,103408.88
2023-02-06T08:18:26.214Z,103417.19
2023-02-06T08:20:52.598Z,103413.00
2023-02-06T08:23:20.883Z,103406.69
2023-02-06T08:25:47.398Z,103403.88
2023-02-06T08:28:14.904Z,103408.31
2023-02-06T08:30:41.390Z,103414.63
2023-02-06T08:33:07.857Z,103414.88
2023-02-06T08:35:34.619Z,103404.09
2023-02-06T08:38:01.152Z,103408.31
2023-02-06T08:40:27.541Z,103401.88
2023-02-06T08:42:53.922Z,103408.00
2023-02-06T08:45:20.359Z,103420.44
2023-02-06T08:47:46.788Z,103414.09
2023-02-06T08:50:13.254Z,103401.13
2023-02-06T08:52:40.278Z,103408.44
2023-02-06T08:55:07.486Z,103403.97
2023-02-06T08:57:33.882Z,103405.81
2023-02-06T09:00:00.250Z,103410.97
2023-02-06T09:02:26.711Z,103419.44
2023-02-06T09:04:53.302Z,103416.72
2023-02-06T09:07:21.710Z,103418.47
2023-02-06T09:09:48.165Z,103418.47
2023-02-06T09:12:15.788Z,103417.50
2023-02-06T09:14:42.278Z,103420.53
2023-02-06T09:17:08.753Z,103416.81
2023-02-06T09:19:35.191Z,103415.59
2023-02-06T09:22:01.600Z,103418.34
2023-02-06T09:24:30.115Z,103421.72
2023-02-06T09:27:00.284Z,103400.13
2023-02-06T09:29:29.231Z,103403.03
2023-02-06T09:31:57.329Z,103396.03
2023-02-06T09:34:25.669Z,103396.59
2023-02-06T09:36:54.418Z,103400.72
2023-02-06T09:39:20.892Z,103397.00
2023-02-06T09:41:52.221Z,103405.53
2023-02-06T09:44:27.493Z,103398.75
2023-02-06T09:47:11.216Z,103391.88
2023-02-06T09:49:47.894Z,103391.88
2023-02-06T09:52:30.681Z,103387.69
2023-02-06T09:55:12.789Z,103386.25
2023-02-06T09:58:16.227Z,103381.19
2023-02-06T10:01:14.756Z,103379.63
2023-02-06T10:03:56.412Z,103380.91
2023-02-06T10:06:28.629Z,103371.25
2023-02-06T10:09:35.526Z,103367.16
2023-02-06T10:12:11.678Z,103364.28
2023-02-06T10:14:41.089Z,103363.84
2023-02-06T10:17:20.063Z,103366.00
2023-02-06T10:19:52.996Z,103360.38
2023-02-06T10:22:30.413Z,103355.06
2023-02-06T10:25:33.134Z,103344.59
2023-02-06T10:28:08.287Z,103353.66
2023-02-06T10:31:11.164Z,103346.56
2023-02-06T10:34:06.997Z,103353.06
2023-02-06T10:36:51.532Z,103343.09
2023-02-06T10:39:18.155Z,103350.94
2023-02-06T10:41:52.892Z,103339.38
2023-02-06T10:44:37.469Z,103346.34
2023-02-06T10:47:19.485Z,103327.91
2023-02-06T10:49:52.336Z,103333.63
2023-02-06T10:52:26.281Z,103333.38
2023-02-06T10:55:00.257Z,103316.28
2023-02-06T10:57:30.767Z,103319.78
2023-02-06T11:00:01.713Z,103319.59
2023-02-06T11:02:43.934Z,103309.25
2023-02-06T11:05:16.290Z,103308.25
2023-02-06T11:07:47.218Z,103298.34
2023-02-06T11:10:16.647Z,103296.16
2023-02-06T11:12:54.026Z,103283.50
2023-02-06T11:15:41.961Z,103273.47
2023-02-06T11:18:13.825Z,103267.50
2023-02-06T11:20:43.644Z,103262.84
2023-02-06T11:23:28.504Z,103256.44
2023-02-06T11:26:04.990Z,103261.44
2023-02-06T11:28:34.382Z,103245.78
2023-02-06T11:31:07.157Z,103251.19
2023-02-06T11:34:02.284Z,103257.88
2023-02-06T11:36:34.646Z,103245.19
2023-02-06T11:39:07.015Z,103240.81
2023-02-06T11:41:33.888Z,103241.53
2023-02-06T11:44:06.544Z,103236.34
2023-02-06T11:46:35.742Z,103234.56
2023-02-06T11:49:26.961Z,103229.31
2023-02-06T11:52:00.779Z,103232.56
2023-02-06T11:54:35.259Z,103229.97
2023-02-06T11:57:03.323Z,103228.09
2023-02-06T11:59:33.876Z,103228.94
2023-02-06T12:02:05.635Z,103228.38
2023-02-06T12:04:37.305Z,103220.22
2023-02-06T12:07:14.554Z,103216.06
2023-02-06T12:09:41.126Z,103214.00
2023-02-06T12:12:25.694Z,103211.28
2023-02-06T12:15:10.229Z,103199.81
2023-02-06T12:17:55.333Z,103195.09
2023-02-06T12:20:32.217Z,103184.16
2023-02-06T12:23:03.570Z,103176.00
2023-02-06T12:25:36.397Z,103187.69
2023-02-06T12:28:11.806Z,103194.13
2023-02-06T12:30:57.657Z,103180.38
2023-02-06T12:33:35.693Z,103171.94
2023-02-06T12:36:12.043Z,103177.28
2023-02-06T12:38:41.547Z,103170.69
2023-02-06T12:41:17.003Z,103154.59
2023-02-06T12:43:48.877Z,103168.09
2023-02-06T12:46:20.408Z,103191.00
2023-02-06T12:48:56.999Z,103169.81
2023-02-06T12:51:35.208Z,103176.28
2023-02-06T12:54:04.494Z,103176.69
2023-02-06T12:56:37.587Z,103179.44
2023-02-06T12:59:10.067Z,103170.44
2023-02-06T13:01:41.380Z,103164.38
2023-02-06T13:04:20.216Z,103166.66
2023-02-06T13:06:46.556Z,103159.19
2023-02-06T13:09:21.401Z,103152.19
2023-02-06T13:11:48.138Z,103155.97
2023-02-06T13:14:37.852Z,103163.38
2023-02-06T13:17:10.311Z,103158.72
2023-02-06T13:19:36.741Z,103159.69
2023-02-06T13:22:09.302Z,103162.19
2023-02-06T13:24:39.515Z,103149.13
2023-02-06T13:27:08.966Z,103152.56
2023-02-06T13:29:44.723Z,103153.28
2023-02-06T13:32:11.667Z,103154.94
2023-02-06T13:34:42.194Z,103141.09
2023-02-06T13:37:31.553Z,103160.31
2023-02-06T13:40:22.995Z,103138.13
2023-02-06T13:42:52.069Z,103139.28
2023-02-06T13:45:23.704Z,103139.47
2023-02-06T13:48:13.270Z,103127.31
2023-02-06T13:51:36.567Z,103149.13
2023-02-06T13:54:24.833Z,103147.66
2023-02-06T13:57:12.310Z,103125.38
2023-02-06T14:00:10.757Z,103145.56
2023-02-06T14:02:44.213Z,103142.50
2023-02-06T14:05:23.739Z,103153.56
2023-02-06T14:08:28.730Z,103139.16
2023-02-06T14:11:34.361Z,103119.94
2023-02-06T14:14:24.775Z,103117.25
2023-02-06T14:17:17.499Z,103121.69
2023-02-06T14:19:56.258Z,103116.75
2023-02-06T14:22:57.368Z,103108.53
2023-02-06T14:25:53.774Z,103113.50
2023-02-06T14:28:46.719Z,103118.56
2023-02-06T14:31:46.417Z,103116.91
2023-02-06T14:34:50.730Z,103115.00
2023-02-06T14:37:50.686Z,103112.50
2023-02-06T14:40:20.455Z,103103.81
2023-02-06T14:42:48.499Z,103109.38
2023-02-06T14:45:24.625Z,103109.94
2023-02-06T14:47:52.674Z,103113.34
2023-02-06T14:50:23.948Z,103113.09
2023-02-06T14:53:14.827Z,103127.16
2023-02-06T14:55:45.084Z,103121.81
2023-02-06T14:58:29.825Z,103114.22
2023-02-06T15:01:10.783Z,103117.19
2023-02-06T15:03:37.453Z,103114.63
2023-02-06T15:06:07.337Z,103132.41
2023-02-06T15:08:34.003Z,103122.31
2023-02-06T15:11:04.433Z,103127.53
2023-02-06T15:13:35.655Z,103123.34
2023-02-06T15:16:05.405Z,103120.81
2023-02-06T15:18:34.870Z,103112.88
2023-02-06T15:21:07.393Z,103120.22
2023-02-06T15:24:02.290Z,103113.25
2023-02-06T15:26:43.723Z,103115.53
2023-02-06T15:29:26.841Z,103106.31
2023-02-06T15:32:06.623Z,103113.09
2023-02-06T15:34:33.856Z,103113.31
2023-02-06T15:37:00.467Z,103117.22
2023-02-06T15:39:27.356Z,103113.13
2023-02-06T15:41:54.097Z,103118.91
2023-02-06T15:44:47.522Z,103118.19
2023-02-06T15:47:16.809Z,103114.25
2023-02-06T15:49:46.242Z,103102.72
2023-02-06T15:52:14.666Z,103108.72
2023-02-06T15:54:42.644Z,103105.25
2023-02-06T15:57:31.366Z,103102.91
2023-02-06T15:59:58.496Z,103106.66
2023-02-06T16:02:36.088Z,103103.31
2023-02-06T16:05:05.090Z,103095.53
2023-02-06T16:07:35.950Z,103095.94
2023-02-06T16:10:08.329Z,103101.81
2023-02-06T16:12:37.131Z,103097.88
2023-02-06T16:15:21.455Z,103090.66
2023-02-06T16:17:47.853Z,103102.88
2023-02-06T16:20:34.305Z,103101.31
2023-02-06T16:23:45.302Z,103094.47
2023-02-06T16:26:26.147Z,103093.75
2023-02-06T16:28:55.104Z,103096.63
2023-02-06T16:31:22.221Z,103104.97
2023-02-06T16:33:51.549Z,103098.91
2023-02-06T16:36:20.361Z,103102.91
2023-02-06T16:38:57.795Z,103105.50
2023-02-06T16:41:38.432Z,103098.31
2023-02-06T16:44:10.437Z,103097.72
2023-02-06T16:46:37.041Z,103100.84
2023-02-06T16:49:10.311Z,103090.16
2023-02-06T16:51:40.280Z,103101.38
2023-02-06T16:54:08.632Z,103099.91
2023-02-06T16:56:35.801Z,103106.50
2023-02-06T16:59:02.220Z,103112.38
2023-02-06T17:01:29.701Z,103106.44
2023-02-06T17:03:56.242Z,103110.69
2023-02-06T17:06:26.356Z,103110.53
2023-02-06T17:08:55.730Z,103127.38
2023-02-06T17:11:22.201Z,103123.88
2023-02-06T17:13:49.052Z,103134.81
2023-02-06T17:16:21.727Z,103128.75
2023-02-06T17:18:48.800Z,103131.84
2023-02-06T17:21:18.400Z,103119.84
2023-02-06T17:23:46.998Z,103117.88
2023-02-06T17:26:16.580Z,103123.25
2023-02-06T17:28:43.801Z,103131.56
2023-02-06T17:31:10.480Z,103137.91
2023-02-06T17:33:37.582Z,103133.94
2023-02-06T17:36:07.854Z,103133.44
2023-02-06T17:38:34.486Z,103137.81
2023-02-06T17:41:00.904Z,103131.22
2023-02-06T17:43:27.383Z,103130.09
2023-02-06T17:45:53.824Z,103116.06
2023-02-06T17:48:20.299Z,103113.22
2023-02-06T17:50:46.755Z,103124.75
2023-02-06T17:53:14.352Z,103123.63
2023-02-06T17:55:41.169Z,103134.91
2023-02-06T17:58:08.280Z,103150.91
2023-02-06T18:00:35.030Z,103131.50
2023-02-06T18:03:01.838Z,103135.84
2023-02-06T18:05:28.250Z,103140.06
2023-02-06T18:07:54.636Z,103137.03
2023-02-06T18:10:23.454Z,103136.53
2023-02-06T18:12:50.213Z,103152.25
2023-02-06T18:15:17.482Z,103143.53
2023-02-06T18:17:44.069Z,103157.56
2023-02-06T18:20:12.057Z,103158.00
2023-02-06T18:22:41.464Z,103156.00
2023-02-06T18:25:14.411Z,103151.34
2023-02-06T18:27:42.777Z,103153.88
2023-02-06T18:30:10.112Z,103147.16
2023-02-06T18:32:37.736Z,103143.03
2023-02-06T18:35:04.761Z,103139.78
2023-02-06T18:37:31.162Z,103149.28
2023-02-06T18:39:57.585Z,103148.97
2023-02-06T18:42:42.418Z,103155.88
2023-02-06T18:45:09.294Z,103154.91
2023-02-06T18:47:35.816Z,103144.56
2023-02-06T18:50:02.307Z,103146.00
2023-02-06T18:52:29.015Z,103147.19
2023-02-06T18:54:55.427Z,103140.47
2023-02-06T18:57:21.941Z,103144.47
2023-02-06T18:59:48.409Z,103137.63
2023-02-06T19:02:14.964Z,103145.38
2023-02-06T19:04:41.568Z,103154.59
2023-02-06T19:07:08.958Z,103148.50
2023-02-06T19:09:35.451Z,103146.97
2023-02-06T19:12:01.959Z,103139.25
2023-02-06T19:14:28.443Z,103136.13
2023-02-06T19:16:55.047Z,103141.09
2023-02-06T19:19:21.825Z,103145.03
2023-02-06T19:21:48.257Z,103140.66
2023-02-06T19:24:18.631Z,103148.94
2023-02-06T19:26:45.624Z,103157.41
2023-02-06T19:29:15.110Z,103158.69
2023-02-06T19:31:42.709Z,103155.66
2023-02-06T19:34:09.865Z,103159.72
2023-02-06T19:36:36.355Z,103179.09
2023-02-06T19:39:06.579Z,103182.13
2023-02-06T19:41:34.155Z,103181.44
2023-02-06T19:44:03.900Z,103191.66
2023-02-06T19:46:30.463Z,103201.00
2023-02-06T19:48:56.984Z,103190.53
2023-02-06T19:51:27.145Z,103193.56
2023-02-06T19:53:55.419Z,103201.91
2023-02-06T19:56:26.053Z,103219.25
2023-02-06T19:58:57.826Z,103213.97
2023-02-06T20:01:25.517Z,103215.69
2023-02-06T20:03:52.546Z,103212.19
2023-02-06T20:06:19.086Z,103223.06
2023-02-06T20:08:46.608Z,103202.41
2023-02-06T20:11:19.990Z,103214.47
2023-02-06T20:13:48.231Z,103208.91
2023-02-06T20:16:16.357Z,103210.88
2023-02-06T20:18:42.829Z,103216.50
2023-02-06T20:21:21.842Z,103215.72
2023-02-06T20:23:49.830Z,103213.13
2023-02-06T20:26:19.006Z,103206.91
2023-02-06T20:28:45.883Z,103198.88
2023-02-06T20:31:12.806Z,103189.06
2023-02-06T20:33:39.481Z,103190.13
2023-02-06T20:36:08.159Z,103189.47
2023-02-06T20:38:35.100Z,103192.25
2023-02-06T20:41:03.059Z,103196.84
2023-02-06T20:43:29.775Z,103196.94
2023-02-06T20:45:56.257Z,103200.72
2023-02-06T20:48:22.979Z,103198.19
2023-02-06T20:50:49.496Z,103201.97
2023-02-06T20:53:15.889Z,103196.75
2023-02-06T20:55:45.533Z,103205.88
2023-02-06T20:58:11.990Z,103213.25
2023-02-06T21:00:38.869Z,103212.47
2023-02-06T21:03:05.465Z,103213.44
2023-02-06T21:05:31.997Z,103227.97
2023-02-06T21:07:58.931Z,103208.97
2023-02-06T21:10:27.980Z,103219.94
2023-02-06T21:12:54.468Z,103223.72
2023-02-06T21:15:20.979Z,103225.63
2023-02-06T21:17:47.369Z,103221.22
2023-02-06T21:20:13.837Z,103224.00
2023-02-06T21:22:40.238Z,103217.13
2023-02-06T21:25:06.662Z,103214.72
2023-02-06T21:27:33.306Z,103216.75
2023-02-06T21:29:59.670Z,103208.88
2023-02-06T21:32:26.158Z,103210.72
2023-02-06T21:34:52.636Z,103221.56
2023-02-06T21:37:19.613Z,103219.72
2023-02-06T21:39:46.069Z,103219.72
2023-02-06T21:42:12.791Z,103217.13
2023-02-06T21:44:39.289Z,103221.84
2023-02-06T21:47:05.889Z,103226.50
2023-02-06T21:49:32.325Z,103218.47
2023-02-06T21:51:59.524Z,103216.72
2023-02-06T21:54:26.087Z,103216.72
2023-02-06T21:56:53.531Z,103220.50
2023-02-06T21:59:19.901Z,103222.44
2023-02-06T22:01:46.332Z,103212.47
2023-02-06T22:04:12.778Z,103208.06
2023-02-06T22:06:39.677Z,103214.38
2023-02-06T22:09:09.052Z,103226.97
2023-02-06T22:11:38.098Z,103219.81
2023-02-06T22:14:08.034Z,103207.31
2023-02-06T22:16:34.786Z,103187.66
2023-02-06T22:19:01.223Z,103192.41
2023-02-06T22:21:29.689Z,103213.22
2023-02-06T22:23:58.584Z,103196.06
2023-02-06T22:26:26.667Z,103193.63
2023-02-06T22:28:53.373Z,103202.75
2023-02-06T22:31:22.946Z,103206.22
2023-02-06T22:33:50.327Z,103190.84
2023-02-06T22:36:20.079Z,103205.53
2023-02-06T22:38:48.055Z,103213.78
2023-02-06T22:41:16.809Z,103224.66
2023-02-06T22:43:45.313Z,103234.78
2023-02-06T22:46:31.469Z,103224.13
2023-02-06T22:48:58.845Z,103220.72
2023-02-06T22:51:25.970Z,103228.84
2023-02-06T22:53:53.226Z,103225.38
2023-02-06T22:56:29.512Z,103210.88
2023-02-06T22:59:10.162Z,103223.63
2023-02-06T23:01:40.057Z,103225.47
2023-02-06T23:04:08.970Z,103224.50
2023-02-06T23:06:35.877Z,103229.84
2023-02-06T23:09:05.582Z,103231.56
2023-02-06T23:11:32.728Z,103239.69
2023-02-06T23:14:01.638Z,103231.69
2023-02-06T23:16:30.459Z,103238.13
2023-02-06T23:18:57.457Z,103248.22
2023-02-06T23:21:25.852Z,103254.78
2023-02-06T23:23:54.915Z,103237.63
2023-02-06T23:26:21.597Z,103262.91
2023-02-06T23:28:48.047Z,103253.91
2023-02-06T23:31:15.278Z,103259.25
2023-02-06T23:33:42.042Z,103249.16
2023-02-06T23:36:12.877Z,103257.91
2023-02-06T23:38:39.799Z,103263.16
2023-02-06T23:41:20.599Z,103266.47
2023-02-06T23:43:51.810Z,103258.03
2023-02-06T23:46:19.908Z,103256.00
2023-02-06T23:48:48.588Z,103257.50
2023-02-06T23:51:16.713Z,103261.66
2023-02-06T23:53:43.623Z,103254.31
2023-02-06T23:56:16.329Z,103251.41
2023-02-06T23:58:43.307Z,103252.00
